Springerville, Arizona
Current Conditions -  °F | °C
As of 9:54 AM on Sunday 21 Dec 2014 (Local Time) from KSJN Reporting Station
Clear Clear  
Wind Chill: 29°   Ceiling: Unl
Heat Index: 35°   Visibility: 10mi
Dew Point: 28°   Wind: 8mph
Humidity: 76%   Direction: 40°NE
Pressure: 30.12"   Gusts: NA
Location:  34.13°N, 109.29°W
Report Text: KSJN 211654Z AUTO 04007KT 10SM CLR 02/M02 A3012 RMK AO2 SLP192 T00171022
Loading
Personal Weather Stations






























Interactive Weather Map New forecast layout! Learn more

10-Day Weather Forecast

Advertisements
Track Severe Weather on mobile